Detailed Flight Report of Ibrahim CANDAN ;
Number CXD001 
Departure Aerodrome LTBJ 
Arrival Aerodrome LYTV

Map generated by the Great Circle Mapper - copyright © Karl L. Swartz.

Pilot In Command CXD001 : Ibrahim Candan
Aircraft A320 / TC-SCC
Date Of Flight 2019-11-05
Departure Time 10:33 UTC
Arrival Time 12:15 UTC
Block Time 01:42
Distance 493 Nm.
Used Fuel 8,774 Lbs.
   
Detailed Flight Log [2019/11/05 10:39:00]
Flight IATA:C001
Pilot Number:001
Company ICAO:CXD
Aircraft Type:A320
Aircraft Registration:TC-SCC
Departing Airport: LTBJ
Destination Airport: LYTV
Alternate Airport:LDDU
Online: VATSIM
Route:RIKSO UN127 LMO UN128 PEREN UM603 TSL UN130 TALAS N130 MAVAR Y400 POD
Flight Level:36000
No pause
10:39 Zero fuel Weight: 136678 Lbs, Fuel Weight: 13655 Lbs
10:39 VATSIM:LTBJ 051950Z 00000KT CAVOK 16/14 Q1017 NOSIG
10:39 VATSIM:LYTV 051930Z 16019KT 130V200 9999 SCT023 BKN050 21/16 Q1009
10:42 Parking Brakes off
10:54 VR= 161 Knots
10:54 V2= 165 Knots
10:54 Take-off
10:54 Take off Weight: 149879 Lbs
10:54 Wind: 000º @ 000 Knots Heading: 166º
10:54 POS N38º 17´ 24´´ E027º 09´ 30´´
10:54 N11 85 N12 85
10:54 Flaps:2 at 165 Knots
10:54 Gear Up: 166 Knots
10:55 Flaps:Up at 201 Knots
11:09 Wind:299º@039 Knots Heading: 303º Ground Speed: 425 Knots Altitude 2
8494 ft
11:17 TOC
11:17 Fuel Weight: 9438 Lb
11:24 Wind:270º@051 Knots Heading: 299º Ground Speed: 409 Knots Altitude 36003 ft
11:39 Wind:256º@063 Knots Heading: 301º Ground Speed: 409 Knots Altitude 36046 ft
11:53 TOD
11:53 Fuel Weight: 6203 Lb
11:54 Wind:251º@069 Knots Heading: 295º Ground Speed: 406 Knots Altitude 34150 ft
12:09 Wind:187º@024 Knots Heading: 318º Ground Speed: 227 Knots Altitude 3408 ft
12:09 Flaps:1 at 200 Knots
12:10 Flaps:1 F at 178 Knots
12:10 Flaps:2 at 179 Knots
12:10 Flaps:3 at 179 Knots
12:10 Flaps: at 180 Knots
12:11 Flaps: at 168 Knots
12:13 Gear Down: 144 Knots
12:14 Flaps: at 143 Knots
12:17 TouchDown:Rate -249 ft/min Speed: 136 Knots
12:17 VATSIM:LYTV 052130Z 16016KT 120V190 9999 FEW023 SCT030 BKN073 21/16 Q1008
12:17 Land
12:17 Wind:161º@016 Knots
12:17 Heading: 139º
12:17 Flight Duration: 01:23
12:17 Landing Weight: 141
759 Lbs
12:17 POS N42º 24´ 13´´ E018º 43´ 27´´
12:24 Parking brakes on
12:24 Block to Block Duration: 01:42
12:24 Final Fuel: 4880 Lbls
12:24 Spent Fuel: 8774 Lbls
12:24 Flight Length: 493 NM
12:24 TOD Land Length: 105 NM

Text Link of Flight Log http://www.candanair.net/acars/logs/CXD00120191105103900.txt
   

[ Back ]